createdAt,value
2019-03-27T00:00:59.447Z,99.90
2019-03-27T00:03:51.678Z,99.90
2019-03-27T00:06:44.851Z,99.90
2019-03-27T00:09:37.699Z,99.90
2019-03-27T00:12:30.096Z,99.90
2019-03-27T00:15:22.574Z,99.90
2019-03-27T00:18:15.045Z,99.90
2019-03-27T00:21:07.339Z,99.90
2019-03-27T00:23:59.666Z,99.90
2019-03-27T00:26:51.982Z,99.90
2019-03-27T00:29:44.199Z,99.90
2019-03-27T00:32:36.664Z,99.90
2019-03-27T00:35:28.782Z,99.90
2019-03-27T00:38:21.587Z,99.90
2019-03-27T00:41:13.956Z,99.90
2019-03-27T00:44:06.167Z,99.90
2019-03-27T00:46:58.562Z,99.90
2019-03-27T00:49:51.391Z,99.90
2019-03-27T00:52:43.811Z,99.90
2019-03-27T00:55:36.178Z,99.90
2019-03-27T00:58:28.398Z,99.90
2019-03-27T01:01:20.991Z,99.90
2019-03-27T01:04:13.651Z,99.90
2019-03-27T01:07:07.052Z,99.90
2019-03-27T01:09:59.433Z,99.90
2019-03-27T01:12:51.880Z,99.90
2019-03-27T01:15:44.091Z,99.90
2019-03-27T01:18:36.578Z,99.90
2019-03-27T01:21:30.433Z,99.90
2019-03-27T01:24:22.610Z,99.90
2019-03-27T01:27:14.736Z,99.90
2019-03-27T01:30:07.962Z,99.90
2019-03-27T01:33:00.104Z,99.90
2019-03-27T01:35:52.425Z,99.90
2019-03-27T01:38:44.803Z,99.90
2019-03-27T01:41:37.435Z,99.90
2019-03-27T01:44:29.644Z,99.90
2019-03-27T01:47:22.079Z,99.90
2019-03-27T01:50:15.059Z,99.90
2019-03-27T01:53:07.249Z,99.90
2019-03-27T01:56:00.258Z,99.90
2019-03-27T01:58:52.357Z,99.90
2019-03-27T02:01:44.395Z,99.90
2019-03-27T02:04:37.576Z,99.90
2019-03-27T02:07:30.026Z,99.90
2019-03-27T02:10:22.867Z,99.90
2019-03-27T02:13:15.122Z,99.90
2019-03-27T02:16:07.592Z,99.90
2019-03-27T02:19:01.464Z,99.90
2019-03-27T02:21:54.043Z,99.90
2019-03-27T02:24:46.530Z,99.90
2019-03-27T02:27:38.730Z,99.90
2019-03-27T02:30:31.287Z,99.90
2019-03-27T02:33:23.779Z,99.90
2019-03-27T02:36:16.204Z,99.90
2019-03-27T02:39:08.895Z,99.90
2019-03-27T02:42:01.412Z,99.90
2019-03-27T02:44:53.577Z,99.90
2019-03-27T02:47:45.837Z,99.90
2019-03-27T02:50:38.275Z,99.90
2019-03-27T02:53:30.414Z,99.90
2019-03-27T02:56:22.811Z,99.90
2019-03-27T02:59:15.112Z,99.90
2019-03-27T03:02:07.678Z,99.90
2019-03-27T03:05:00.016Z,99.90
2019-03-27T03:07:52.497Z,99.90
2019-03-27T03:10:45.921Z,99.90
2019-03-27T03:13:39.044Z,99.90
2019-03-27T03:16:42.159Z,99.90
2019-03-27T03:19:25.956Z,99.90
2019-03-27T03:22:18.571Z,99.90
2019-03-27T03:25:11.078Z,99.90
2019-03-27T03:28:03.405Z,99.90
2019-03-27T03:30:55.524Z,99.90
2019-03-27T03:33:48.015Z,99.90
2019-03-27T03:36:40.519Z,99.90
2019-03-27T03:39:32.950Z,99.90
2019-03-27T03:42:25.740Z,99.90
2019-03-27T03:45:18.721Z,99.90
2019-03-27T03:48:11.281Z,99.90
2019-03-27T03:51:05.170Z,99.90
2019-03-27T03:53:57.741Z,99.90
2019-03-27T03:56:53.406Z,99.90
2019-03-27T03:59:47.117Z,99.90
2019-03-27T04:02:39.707Z,99.90
2019-03-27T04:05:32.278Z,99.90
2019-03-27T04:08:24.756Z,99.90
2019-03-27T04:11:17.244Z,99.90
2019-03-27T04:14:09.387Z,99.90
2019-03-27T04:17:16.069Z,99.90
2019-03-27T04:19:55.792Z,99.90
2019-03-27T04:22:48.250Z,99.90
2019-03-27T04:26:07.056Z,99.90
2019-03-27T04:28:34.397Z,99.90
2019-03-27T04:31:26.850Z,99.90
2019-03-27T04:34:19.222Z,99.90
2019-03-27T04:37:11.656Z,99.90
2019-03-27T04:40:03.809Z,99.90
2019-03-27T04:42:56.726Z,99.90
2019-03-27T04:45:49.679Z,99.90
2019-03-27T04:48:43.033Z,99.90
2019-03-27T04:51:35.307Z,99.90
2019-03-27T04:54:27.797Z,99.90
2019-03-27T04:57:20.819Z,99.90
2019-03-27T05:00:13.830Z,99.90
2019-03-27T05:03:06.335Z,99.90
2019-03-27T05:05:58.503Z,99.90
2019-03-27T05:08:50.592Z,99.90
2019-03-27T05:11:43.068Z,99.90
2019-03-27T05:14:35.887Z,99.90
2019-03-27T05:17:28.387Z,99.90
2019-03-27T05:20:20.708Z,99.90
2019-03-27T05:23:13.141Z,99.90
2019-03-27T05:26:05.350Z,99.90
2019-03-27T05:28:57.536Z,99.90
2019-03-27T05:31:49.910Z,99.90
2019-03-27T05:34:42.674Z,99.90
2019-03-27T05:37:34.872Z,99.90
2019-03-27T05:40:27.247Z,99.90
2019-03-27T05:43:19.618Z,99.90
2019-03-27T05:46:12.464Z,99.90
2019-03-27T05:49:04.590Z,99.90
2019-03-27T05:51:56.828Z,99.90
2019-03-27T05:54:49.371Z,99.90
2019-03-27T05:57:41.839Z,99.90
2019-03-27T06:00:34.907Z,99.90
2019-03-27T06:03:27.445Z,99.90
2019-03-27T06:06:20.102Z,99.90
2019-03-27T06:09:12.549Z,99.90
2019-03-27T06:12:05.041Z,99.90
2019-03-27T06:14:57.642Z,99.90
2019-03-27T06:17:49.794Z,99.90
2019-03-27T06:20:42.677Z,99.90
2019-03-27T06:23:35.212Z,99.90
2019-03-27T06:26:27.546Z,99.90
2019-03-27T06:29:20.422Z,99.90
2019-03-27T06:32:12.796Z,99.90
2019-03-27T06:35:05.484Z,99.90
2019-03-27T06:37:57.791Z,99.90
2019-03-27T06:40:50.247Z,99.90
2019-03-27T06:43:42.727Z,99.90
2019-03-27T06:46:35.097Z,99.90
2019-03-27T06:49:27.438Z,99.90
2019-03-27T06:52:20.417Z,99.90
2019-03-27T06:55:12.812Z,99.90
2019-03-27T06:58:05.321Z,99.90
2019-03-27T07:00:57.517Z,99.90
2019-03-27T07:03:49.850Z,99.90
2019-03-27T07:06:43.007Z,99.90
2019-03-27T07:09:35.170Z,99.90
2019-03-27T07:12:27.625Z,99.90
2019-03-27T07:15:20.142Z,99.90
2019-03-27T07:18:13.233Z,99.90
2019-03-27T07:21:05.306Z,99.90
2019-03-27T07:23:57.662Z,99.90
2019-03-27T07:26:50.103Z,99.90
2019-03-27T07:29:42.584Z,99.90
2019-03-27T07:32:35.085Z,99.90
2019-03-27T07:35:27.933Z,99.90
2019-03-27T07:38:20.204Z,99.90
2019-03-27T07:41:13.392Z,99.90
2019-03-27T07:44:05.789Z,99.90
2019-03-27T07:46:57.952Z,99.90
2019-03-27T07:49:50.260Z,99.90
2019-03-27T07:52:42.919Z,99.90
2019-03-27T07:55:35.294Z,99.90
2019-03-27T07:58:27.726Z,99.90
2019-03-27T08:01:21.013Z,99.90
2019-03-27T08:04:14.540Z,99.70
2019-03-27T08:07:07.449Z,98.80
2019-03-27T08:10:00.431Z,98.00
2019-03-27T08:12:52.876Z,96.00
2019-03-27T08:15:45.074Z,88.60
2019-03-27T08:18:37.304Z,90.20
2019-03-27T08:21:31.311Z,85.90
2019-03-27T08:24:24.766Z,87.00
2019-03-27T08:27:17.251Z,90.10
2019-03-27T08:30:13.540Z,88.30
2019-03-27T08:33:05.866Z,89.60
2019-03-27T08:35:57.990Z,90.00
2019-03-27T08:38:50.430Z,85.40
2019-03-27T08:41:42.760Z,86.80
2019-03-27T08:44:35.431Z,87.30
2019-03-27T08:47:28.889Z,80.40
2019-03-27T08:50:21.440Z,82.60
2019-03-27T08:53:14.490Z,80.70
2019-03-27T08:56:06.771Z,77.40
2019-03-27T08:58:59.390Z,81.60
2019-03-27T09:01:52.276Z,82.10
2019-03-27T09:04:44.794Z,82.30
2019-03-27T09:07:37.332Z,79.80
2019-03-27T09:10:29.670Z,74.80
2019-03-27T09:13:21.990Z,66.60
2019-03-27T09:16:14.249Z,70.20
2019-03-27T09:19:06.556Z,73.20
2019-03-27T09:21:59.334Z,73.00
2019-03-27T09:24:51.948Z,72.20
2019-03-27T09:27:44.363Z,69.30
2019-03-27T09:30:36.807Z,70.80
2019-03-27T09:33:29.024Z,68.70
2019-03-27T09:36:21.842Z,71.10
2019-03-27T09:39:14.718Z,69.10
2019-03-27T09:42:06.784Z,67.60
2019-03-27T09:44:58.982Z,65.70
2019-03-27T09:47:51.086Z,64.50
2019-03-27T09:50:43.577Z,67.90
2019-03-27T09:53:36.114Z,67.80
2019-03-27T09:56:28.697Z,67.80
2019-03-27T09:59:21.424Z,64.90
2019-03-27T10:02:14.437Z,65.30
2019-03-27T10:05:07.796Z,66.30
2019-03-27T10:08:00.691Z,63.50
2019-03-27T10:10:53.476Z,64.20
2019-03-27T10:13:46.088Z,64.10
2019-03-27T10:16:38.578Z,63.70
2019-03-27T10:19:31.462Z,63.70
2019-03-27T10:22:23.573Z,58.50
2019-03-27T10:25:15.974Z,58.60
2019-03-27T10:28:08.408Z,58.00
2019-03-27T10:31:00.869Z,58.50
2019-03-27T10:33:53.021Z,58.70
2019-03-27T10:36:45.298Z,58.30
2019-03-27T10:39:37.722Z,59.40
2019-03-27T10:42:30.333Z,59.00
2019-03-27T10:45:22.570Z,59.30
2019-03-27T10:48:14.838Z,63.00
2019-03-27T10:51:07.132Z,62.60
2019-03-27T10:53:59.348Z,59.70
2019-03-27T10:56:51.525Z,59.80
2019-03-27T10:59:43.965Z,61.10
2019-03-27T11:02:36.380Z,62.40
2019-03-27T11:05:28.918Z,58.90
2019-03-27T11:08:21.165Z,59.10
2019-03-27T11:11:13.598Z,59.90
2019-03-27T11:14:06.268Z,59.90
2019-03-27T11:16:58.790Z,58.30
2019-03-27T11:19:51.709Z,58.40
2019-03-27T11:22:44.927Z,58.60
2019-03-27T11:25:37.117Z,60.40
2019-03-27T11:28:29.706Z,55.60
2019-03-27T11:31:22.150Z,57.80
2019-03-27T11:34:14.288Z,60.40
2019-03-27T11:37:06.511Z,60.90
2019-03-27T11:39:58.716Z,61.30
2019-03-27T11:42:51.081Z,60.70
2019-03-27T11:45:44.186Z,62.60
2019-03-27T11:48:36.518Z,61.90
2019-03-27T11:51:29.533Z,61.10
2019-03-27T11:54:22.112Z,60.00
2019-03-27T11:57:14.464Z,62.10
2019-03-27T12:00:09.750Z,62.30
2019-03-27T12:03:02.059Z,62.10
2019-03-27T12:05:55.270Z,63.10
2019-03-27T12:08:50.658Z,62.80
2019-03-27T12:11:41.680Z,62.20
2019-03-27T12:14:33.881Z,62.10
2019-03-27T12:17:26.885Z,62.80
2019-03-27T12:20:19.987Z,64.30
2019-03-27T12:23:12.529Z,64.10
2019-03-27T12:26:05.776Z,64.70
2019-03-27T12:28:59.058Z,66.10
2019-03-27T12:31:52.076Z,66.20
2019-03-27T12:34:44.565Z,64.80
2019-03-27T12:37:37.980Z,65.30
2019-03-27T12:40:31.118Z,66.00
2019-03-27T12:43:23.847Z,68.40
2019-03-27T12:46:17.827Z,69.00
2019-03-27T12:49:10.511Z,67.10
2019-03-27T12:52:05.521Z,67.00
2019-03-27T12:54:58.249Z,66.20
2019-03-27T12:57:50.917Z,68.40
2019-03-27T13:00:43.767Z,68.10
2019-03-27T13:03:36.491Z,69.00
2019-03-27T13:06:30.142Z,67.10
2019-03-27T13:09:22.783Z,67.90
2019-03-27T13:12:15.533Z,67.30
2019-03-27T13:15:08.860Z,67.30
2019-03-27T13:18:01.459Z,68.50
2019-03-27T13:20:54.502Z,66.90
2019-03-27T13:23:47.134Z,66.90
2019-03-27T13:26:39.514Z,66.00
2019-03-27T13:29:31.816Z,65.70
2019-03-27T13:32:24.020Z,65.20
2019-03-27T13:35:16.263Z,66.20
2019-03-27T13:38:08.484Z,65.70
2019-03-27T13:41:00.644Z,65.50
2019-03-27T13:43:52.845Z,66.90
2019-03-27T13:46:45.059Z,67.70
2019-03-27T13:49:38.381Z,67.00
2019-03-27T13:52:30.725Z,68.30
2019-03-27T13:55:22.840Z,67.30
2019-03-27T13:58:15.254Z,67.20
2019-03-27T14:01:09.056Z,68.80
2019-03-27T14:04:02.426Z,69.30
2019-03-27T14:06:54.586Z,70.40
2019-03-27T14:09:46.728Z,70.20
2019-03-27T14:12:39.217Z,70.60
2019-03-27T14:15:31.652Z,69.50
2019-03-27T14:18:23.805Z,69.10
2019-03-27T14:21:16.188Z,68.80
2019-03-27T14:24:09.296Z,69.70
2019-03-27T14:27:01.842Z,70.50
2019-03-27T14:29:54.513Z,70.50
2019-03-27T14:32:47.140Z,71.40
2019-03-27T14:35:39.594Z,71.20
2019-03-27T14:38:32.250Z,72.30
2019-03-27T14:41:24.718Z,72.60
2019-03-27T14:44:17.770Z,72.10
2019-03-27T14:47:10.085Z,70.50
2019-03-27T14:50:02.269Z,72.40
2019-03-27T14:52:54.863Z,72.20
2019-03-27T14:55:47.106Z,73.20
2019-03-27T14:58:39.691Z,73.40
2019-03-27T15:01:31.888Z,73.70
2019-03-27T15:04:24.190Z,74.80
2019-03-27T15:07:17.560Z,74.90
2019-03-27T15:10:11.103Z,74.60
2019-03-27T15:13:03.361Z,74.70
2019-03-27T15:15:56.186Z,74.90
2019-03-27T15:18:48.569Z,75.10
2019-03-27T15:21:40.806Z,76.00
2019-03-27T15:24:32.966Z,75.90
2019-03-27T15:27:25.555Z,76.50
2019-03-27T15:30:18.437Z,76.80
2019-03-27T15:33:11.466Z,78.80
2019-03-27T15:36:03.837Z,80.00
2019-03-27T15:38:56.328Z,78.70
2019-03-27T15:41:48.624Z,77.20
2019-03-27T15:44:41.669Z,77.30
2019-03-27T15:47:34.702Z,78.30
2019-03-27T15:50:26.827Z,79.10
2019-03-27T15:53:19.669Z,79.30
2019-03-27T15:56:12.450Z,77.80
2019-03-27T15:59:04.953Z,77.80
2019-03-27T16:01:58.027Z,78.60
2019-03-27T16:04:51.580Z,78.50
2019-03-27T16:07:44.075Z,79.50
2019-03-27T16:10:36.563Z,79.70
2019-03-27T16:13:28.987Z,79.20
2019-03-27T16:16:21.192Z,80.40
2019-03-27T16:19:13.327Z,81.10
2019-03-27T16:22:07.102Z,80.80
2019-03-27T16:25:00.121Z,81.50
2019-03-27T16:27:53.905Z,84.10
2019-03-27T16:30:46.400Z,86.70
2019-03-27T16:33:38.865Z,88.50
2019-03-27T16:36:30.983Z,90.20
2019-03-27T16:39:23.543Z,91.00
2019-03-27T16:42:16.044Z,90.80
2019-03-27T16:45:08.974Z,91.10
2019-03-27T16:48:01.110Z,92.10
2019-03-27T16:50:53.312Z,92.60
2019-03-27T16:53:45.828Z,92.90
2019-03-27T16:56:38.465Z,93.60
2019-03-27T16:59:32.472Z,93.30
2019-03-27T17:02:24.937Z,92.90
2019-03-27T17:05:18.231Z,93.00
2019-03-27T17:08:10.439Z,92.80
2019-03-27T17:11:03.874Z,93.20
2019-03-27T17:13:56.185Z,93.30
2019-03-27T17:16:48.349Z,93.50
2019-03-27T17:19:40.867Z,93.60
2019-03-27T17:22:33.957Z,94.40
2019-03-27T17:25:27.258Z,95.10
2019-03-27T17:28:19.483Z,95.40
2019-03-27T17:31:11.948Z,95.90
2019-03-27T17:34:04.320Z,97.30
2019-03-27T17:36:57.427Z,99.00
2019-03-27T17:39:49.842Z,98.20
2019-03-27T17:42:42.813Z,99.10
2019-03-27T17:45:35.535Z,99.50
2019-03-27T17:48:27.952Z,99.90
2019-03-27T17:51:20.950Z,99.90
2019-03-27T17:54:20.495Z,99.90
2019-03-27T17:57:07.468Z,99.90
2019-03-27T18:00:00.009Z,99.90
2019-03-27T18:02:52.339Z,99.90
2019-03-27T18:05:44.568Z,99.90
2019-03-27T18:08:36.759Z,99.90
2019-03-27T18:11:29.175Z,99.90
2019-03-27T18:14:21.611Z,99.90
2019-03-27T18:17:14.814Z,99.90
2019-03-27T18:20:07.968Z,99.90
2019-03-27T18:23:00.531Z,99.90
2019-03-27T18:25:52.788Z,99.90
2019-03-27T18:28:45.976Z,99.90
2019-03-27T18:31:38.616Z,99.90
2019-03-27T18:34:30.750Z,99.90
2019-03-27T18:37:23.805Z,99.90
2019-03-27T18:40:16.233Z,99.90
2019-03-27T18:43:09.667Z,99.90
2019-03-27T18:46:01.862Z,99.90
2019-03-27T18:48:54.175Z,99.90
2019-03-27T18:51:46.738Z,99.90
2019-03-27T18:54:38.963Z,99.90
2019-03-27T18:57:31.498Z,99.90
2019-03-27T19:00:24.862Z,99.90
2019-03-27T19:03:17.021Z,99.90
2019-03-27T19:06:09.409Z,99.90
2019-03-27T19:09:01.560Z,99.90
2019-03-27T19:11:56.717Z,99.90
2019-03-27T19:14:48.982Z,99.90
2019-03-27T19:17:41.481Z,99.90
2019-03-27T19:20:34.690Z,99.90
2019-03-27T19:23:27.099Z,99.90
2019-03-27T19:26:19.550Z,99.90
2019-03-27T19:29:11.729Z,99.90
2019-03-27T19:32:04.180Z,99.90
2019-03-27T19:34:56.672Z,99.90
2019-03-27T19:37:48.910Z,99.90
2019-03-27T19:40:41.456Z,99.90
2019-03-27T19:43:33.929Z,99.90
2019-03-27T19:46:26.493Z,99.90
2019-03-27T19:49:19.185Z,99.90
2019-03-27T19:52:11.333Z,99.90
2019-03-27T19:55:03.725Z,99.90
2019-03-27T19:57:56.207Z,99.90
2019-03-27T20:00:48.454Z,99.90
2019-03-27T20:03:40.813Z,99.90
2019-03-27T20:06:33.126Z,99.90
2019-03-27T20:09:25.564Z,99.90
2019-03-27T20:12:17.749Z,99.90
2019-03-27T20:15:12.793Z,99.90
2019-03-27T20:18:04.407Z,99.90
2019-03-27T20:20:57.643Z,99.90
2019-03-27T20:23:49.972Z,99.90
2019-03-27T20:26:42.519Z,99.90
2019-03-27T20:29:35.518Z,99.90
2019-03-27T20:32:27.996Z,99.90
2019-03-27T20:35:22.941Z,99.90
2019-03-27T20:38:15.846Z,99.90
2019-03-27T20:41:08.048Z,99.90
2019-03-27T20:44:01.224Z,99.90
2019-03-27T20:46:53.432Z,99.90
2019-03-27T20:49:45.890Z,99.90
2019-03-27T20:52:38.085Z,99.90
2019-03-27T20:55:31.190Z,99.90
2019-03-27T20:58:24.025Z,99.90
2019-03-27T21:01:16.490Z,99.90
2019-03-27T21:04:08.722Z,99.90
2019-03-27T21:07:01.294Z,99.90
2019-03-27T21:09:53.945Z,99.90
2019-03-27T21:12:46.795Z,99.90
2019-03-27T21:15:39.449Z,99.90
2019-03-27T21:18:31.693Z,99.90
2019-03-27T21:21:24.233Z,99.90
2019-03-27T21:24:16.646Z,99.90
2019-03-27T21:27:09.102Z,99.90
2019-03-27T21:30:01.335Z,99.90
2019-03-27T21:32:53.463Z,99.90
2019-03-27T21:35:45.599Z,99.90
2019-03-27T21:38:37.955Z,99.90
2019-03-27T21:41:30.324Z,99.90
2019-03-27T21:44:22.859Z,99.90
2019-03-27T21:47:15.900Z,99.90
2019-03-27T21:50:09.061Z,99.90
2019-03-27T21:53:01.482Z,99.90
2019-03-27T21:55:54.266Z,99.90
2019-03-27T21:58:46.370Z,99.90
2019-03-27T22:01:38.625Z,99.90
2019-03-27T22:04:30.740Z,99.90
2019-03-27T22:07:22.908Z,99.90
2019-03-27T22:10:15.300Z,99.90
2019-03-27T22:13:07.439Z,99.90
2019-03-27T22:15:59.759Z,99.90
2019-03-27T22:18:52.076Z,99.90
2019-03-27T22:21:44.300Z,99.90
2019-03-27T22:24:36.809Z,99.90
2019-03-27T22:27:29.394Z,99.90
2019-03-27T22:30:21.822Z,99.90
2019-03-27T22:33:14.080Z,99.90
2019-03-27T22:36:07.607Z,99.90
2019-03-27T22:39:00.137Z,99.90
2019-03-27T22:41:54.328Z,99.90
2019-03-27T22:44:46.369Z,99.90
2019-03-27T22:47:38.628Z,99.90
2019-03-27T22:50:31.449Z,99.90
2019-03-27T22:53:23.634Z,99.90
2019-03-27T22:56:16.051Z,99.90
2019-03-27T22:59:08.530Z,99.90
2019-03-27T23:02:01.003Z,99.90
2019-03-27T23:04:53.180Z,99.90
2019-03-27T23:07:45.631Z,99.90
2019-03-27T23:10:38.084Z,99.90
2019-03-27T23:13:31.585Z,99.90
2019-03-27T23:16:24.042Z,99.90
2019-03-27T23:19:16.440Z,99.90
2019-03-27T23:22:08.582Z,99.90
2019-03-27T23:25:00.915Z,99.90
2019-03-27T23:27:54.248Z,99.90
2019-03-27T23:30:47.031Z,99.90
2019-03-27T23:33:39.351Z,99.90
2019-03-27T23:36:31.970Z,99.90
2019-03-27T23:39:24.415Z,99.90
2019-03-27T23:42:16.792Z,99.90
2019-03-27T23:45:10.478Z,99.90
2019-03-27T23:48:03.285Z,99.90
2019-03-27T23:50:55.485Z,99.90
2019-03-27T23:53:47.717Z,99.90
2019-03-27T23:56:40.104Z,99.90
2019-03-27T23:59:32.567Z,99.90
